createdAt,value
2023-03-11T00:01:16.675Z,-0.0
2023-03-11T00:03:18.629Z,-0.1
2023-03-11T00:05:17.182Z,-0.1
2023-03-11T00:07:14.836Z,-0.2
2023-03-11T00:09:14.915Z,-0.2
2023-03-11T00:11:13.857Z,-0.2
2023-03-11T00:13:15.484Z,-0.4
2023-03-11T00:15:13.615Z,-0.4
2023-03-11T00:17:12.445Z,-0.4
2023-03-11T00:19:11.917Z,-0.4
2023-03-11T00:21:15.293Z,-0.4
2023-03-11T00:23:13.169Z,-0.5
2023-03-11T00:25:11.264Z,-0.4
2023-03-11T00:27:09.954Z,-0.6
2023-03-11T00:31:11.142Z,-0.4
2023-03-11T00:33:10.039Z,-0.6
2023-03-11T00:35:12.472Z,-0.5
2023-03-11T00:37:07.940Z,-0.4
2023-03-11T00:39:07.359Z,-0.5
2023-03-11T00:41:06.490Z,-0.5
2023-03-11T00:43:06.456Z,-0.4
2023-03-11T00:45:06.493Z,-0.4
2023-03-11T00:47:05.336Z,-0.4
2023-03-11T00:49:04.714Z,-0.4
2023-03-11T00:51:06.349Z,-0.5
2023-03-11T00:53:04.436Z,-0.4
2023-03-11T00:55:03.764Z,-0.4
2023-03-11T00:57:02.909Z,-0.3
2023-03-11T00:59:02.347Z,-0.3
2023-03-11T01:03:01.938Z,-0.3
2023-03-11T01:05:00.876Z,-0.3
2023-03-11T01:07:00.453Z,-0.2
2023-03-11T01:09:00.050Z,-0.3
2023-03-11T01:11:00.551Z,-0.2
2023-03-11T01:12:59.476Z,-0.2
2023-03-11T01:14:58.840Z,-0.3
2023-03-11T01:16:58.088Z,-0.5
2023-03-11T01:18:57.835Z,-0.6
2023-03-11T01:20:57.219Z,-0.6
2023-03-11T01:22:56.870Z,-0.6
2023-03-11T01:24:56.212Z,-0.6
2023-03-11T01:26:55.970Z,-0.6
2023-03-11T01:28:55.486Z,-0.6
2023-03-11T01:30:54.889Z,-0.6
2023-03-11T01:32:56.308Z,-0.6
2023-03-11T01:34:53.985Z,-0.7
2023-03-11T01:38:53.172Z,-0.7
2023-03-11T01:40:53.103Z,-0.8
2023-03-11T01:42:52.126Z,-0.8
2023-03-11T01:44:51.679Z,-0.8
2023-03-11T01:47:12.032Z,-0.7
2023-03-11T01:48:52.346Z,-0.9
2023-03-11T01:50:50.383Z,-0.9
2023-03-11T01:54:51.873Z,-0.7
2023-03-11T01:56:49.986Z,-0.8
2023-03-11T01:58:51.362Z,-0.7
2023-03-11T02:00:47.927Z,-0.7
2023-03-11T02:02:50.904Z,-0.8
2023-03-11T02:04:48.745Z,-0.7
2023-03-11T02:06:46.710Z,-0.7
2023-03-11T02:08:46.912Z,-0.6
2023-03-11T02:10:47.518Z,-0.6
2023-03-11T02:12:47.687Z,-0.6
2023-03-11T02:14:48.709Z,-0.4
2023-03-11T02:16:44.178Z,-0.4
2023-03-11T02:18:43.730Z,-0.5
2023-03-11T02:20:48.553Z,-0.5
2023-03-11T02:22:43.161Z,-0.4
2023-03-11T02:24:49.479Z,-0.4
2023-03-11T02:28:42.542Z,-0.5
2023-03-11T02:30:43.076Z,-0.4
2023-03-11T02:32:42.052Z,-0.3
2023-03-11T02:34:39.697Z,-0.3
2023-03-11T02:36:41.556Z,-0.4
2023-03-11T02:38:38.593Z,-0.3
2023-03-11T02:40:47.845Z,-0.2
2023-03-11T02:42:37.756Z,-0.3
2023-03-11T02:44:38.731Z,-0.3
2023-03-11T02:46:40.765Z,-0.3
2023-03-11T02:48:37.959Z,-0.3
2023-03-11T02:50:36.328Z,-0.4
2023-03-11T02:52:35.890Z,-0.3
2023-03-11T02:56:34.387Z,-0.4
2023-03-11T03:00:33.659Z,-0.4
2023-03-11T03:04:32.838Z,-0.4
2023-03-11T03:08:31.542Z,-0.6
2023-03-11T03:14:31.001Z,-0.4
2023-03-11T03:16:29.758Z,-0.5
2023-03-11T03:18:29.218Z,-0.4
2023-03-11T03:22:29.444Z,-0.3
2023-03-11T03:24:27.578Z,-0.4
2023-03-11T03:26:27.174Z,-0.5
2023-03-11T03:34:25.734Z,-0.6
2023-03-11T03:38:24.289Z,-0.4
2023-03-11T03:40:24.148Z,-0.5
2023-03-11T03:42:24.263Z,-0.5
2023-03-11T03:44:23.019Z,-0.7
2023-03-11T03:46:22.872Z,-0.7
2023-03-11T03:48:22.157Z,-0.7
2023-03-11T03:52:20.949Z,-0.9
2023-03-11T03:54:20.476Z,-0.8
2023-03-11T03:56:19.981Z,-0.9
2023-03-11T03:58:19.839Z,-0.9
2023-03-11T04:02:18.842Z,-0.8
2023-03-11T04:04:18.167Z,-1.0
2023-03-11T04:06:20.569Z,-1.1
2023-03-11T04:08:17.434Z,-1.1
2023-03-11T04:10:17.301Z,-0.9
2023-03-11T04:12:16.593Z,-1.1
2023-03-11T04:14:15.842Z,-1.1
2023-03-11T04:18:14.758Z,-1.1
2023-03-11T04:20:14.338Z,-1.0
2023-03-11T04:22:14.132Z,-1.1
2023-03-11T04:24:13.461Z,-1.1
2023-03-11T04:26:13.197Z,-1.1
2023-03-11T04:28:12.656Z,-1.2
2023-03-11T04:32:11.497Z,-1.3
2023-03-11T04:34:11.496Z,-1.2
2023-03-11T04:36:12.253Z,-1.2
2023-03-11T04:38:09.957Z,-1.3
2023-03-11T04:40:10.295Z,-1.2
2023-03-11T04:42:08.956Z,-1.3
2023-03-11T04:44:08.536Z,-1.3
2023-03-11T04:46:08.432Z,-1.4
2023-03-11T04:48:08.094Z,-1.4
2023-03-11T04:52:06.500Z,-1.5
2023-03-11T04:54:06.007Z,-1.4
2023-03-11T04:56:05.734Z,-1.4
2023-03-11T04:58:05.287Z,-1.4
2023-03-11T05:00:08.775Z,-1.4
2023-03-11T05:02:04.032Z,-1.4
2023-03-11T05:04:03.610Z,-1.3
2023-03-11T05:06:03.293Z,-1.4
2023-03-11T05:08:02.707Z,-1.6
2023-03-11T05:10:02.985Z,-1.6
2023-03-11T05:12:01.454Z,-1.8
2023-03-11T05:14:01.050Z,-1.9
2023-03-11T05:18:00.090Z,-1.7
2023-03-11T05:19:59.482Z,-1.7
2023-03-11T05:22:00.327Z,-1.6
2023-03-11T05:23:58.522Z,-1.7
2023-03-11T05:25:58.218Z,-1.7
2023-03-11T05:27:57.919Z,-1.7
2023-03-11T05:29:57.203Z,-1.8
2023-03-11T05:31:56.698Z,-1.9
2023-03-11T05:33:56.264Z,-1.8
2023-03-11T05:35:55.664Z,-1.8
2023-03-11T05:37:54.981Z,-1.9
2023-03-11T05:39:54.497Z,-2.0
2023-03-11T05:41:56.076Z,-2.1
2023-03-11T05:43:53.609Z,-2.1
2023-03-11T05:45:53.377Z,-2.1
2023-03-11T05:47:52.511Z,-1.9
2023-03-11T05:49:51.974Z,-2.1
2023-03-11T05:51:53.223Z,-2.0
2023-03-11T05:53:51.399Z,-2.0
2023-03-11T05:55:55.743Z,-2.0
2023-03-11T05:57:50.860Z,-1.9
2023-03-11T05:59:49.475Z,-2.1
2023-03-11T06:01:49.016Z,-2.1
2023-03-11T06:03:48.629Z,-2.0
2023-03-11T06:05:49.716Z,-1.9
2023-03-11T06:07:47.665Z,-2.0
2023-03-11T06:11:46.704Z,-2.1
2023-03-11T06:13:45.973Z,-2.2
2023-03-11T06:15:45.464Z,-2.2
2023-03-11T06:17:44.985Z,-2.2
2023-03-11T06:19:44.745Z,-2.2
2023-03-11T06:21:43.957Z,-2.0
2023-03-11T06:23:44.700Z,-1.9
2023-03-11T06:25:42.936Z,-1.9
2023-03-11T06:27:43.583Z,-2.1
2023-03-11T06:29:42.310Z,-2.0
2023-03-11T06:33:41.257Z,-2.2
2023-03-11T06:35:40.830Z,-2.2
2023-03-11T06:37:40.127Z,-2.1
2023-03-11T06:39:39.398Z,-2.0
2023-03-11T06:41:39.005Z,-2.1
2023-03-11T06:43:38.693Z,-2.0
2023-03-11T06:45:38.008Z,-2.0
2023-03-11T06:47:38.379Z,-2.0
2023-03-11T06:49:39.881Z,-2.0
2023-03-11T06:51:36.418Z,-2.0
2023-03-11T06:53:35.958Z,-2.0
2023-03-11T06:55:35.653Z,-2.0
2023-03-11T06:57:34.940Z,-1.9
2023-03-11T06:59:35.186Z,-1.9
2023-03-11T07:01:34.368Z,-2.0
2023-03-11T07:03:33.813Z,-2.0
2023-03-11T07:07:32.495Z,-1.9
2023-03-11T07:11:31.701Z,-1.8
2023-03-11T07:13:31.537Z,-1.7
2023-03-11T07:15:30.393Z,-1.6
2023-03-11T07:17:29.952Z,-1.7
2023-03-11T07:19:29.592Z,-1.6
2023-03-11T07:21:30.797Z,-1.6
2023-03-11T07:23:28.662Z,-1.6
2023-03-11T07:25:28.046Z,-1.6
2023-03-11T07:27:27.859Z,-1.6
2023-03-11T07:29:26.874Z,-1.5
2023-03-11T07:31:29.283Z,-1.5
2023-03-11T07:33:25.885Z,-1.5
2023-03-11T07:35:25.531Z,-1.4
2023-03-11T07:37:24.896Z,-1.4
2023-03-11T07:39:24.403Z,-1.4
2023-03-11T07:41:24.951Z,-1.4
2023-03-11T07:43:23.547Z,-1.4
2023-03-11T07:45:23.192Z,-1.3
2023-03-11T07:47:23.743Z,-1.2
2023-03-11T07:49:21.888Z,-1.3
2023-03-11T07:51:24.119Z,-1.2
2023-03-11T07:53:20.828Z,-1.1
2023-03-11T07:55:20.777Z,-1.2
2023-03-11T07:57:19.963Z,-1.1
2023-03-11T08:01:20.930Z,-1.0
2023-03-11T08:03:18.452Z,-0.9
2023-03-11T08:05:19.850Z,-0.8
2023-03-11T08:07:19.722Z,-0.7
2023-03-11T08:09:17.005Z,-0.7
2023-03-11T08:11:18.203Z,-0.7
2023-03-11T08:13:16.342Z,-0.7
2023-03-11T08:15:15.439Z,-0.7
2023-03-11T08:17:14.869Z,-0.6
2023-03-11T08:19:14.602Z,-0.6
2023-03-11T08:23:13.406Z,-0.4
2023-03-11T08:25:12.973Z,-0.5
2023-03-11T08:27:12.413Z,-0.5
2023-03-11T08:29:11.862Z,-0.3
2023-03-11T08:31:13.038Z,-0.2
2023-03-11T08:33:10.898Z,-0.0
2023-03-11T08:35:10.506Z,0.1
2023-03-11T08:37:10.211Z,0.2
2023-03-11T08:39:09.714Z,0.2
2023-03-11T08:41:09.104Z,0.3
2023-03-11T08:47:08.202Z,0.2
2023-03-11T08:49:07.145Z,0.2
2023-03-11T08:51:09.597Z,0.3
2023-03-11T08:55:08.252Z,0.5
2023-03-11T08:57:05.382Z,0.6
2023-03-11T08:59:04.714Z,0.8
2023-03-11T09:01:05.970Z,0.8
2023-03-11T09:03:03.759Z,0.9
2023-03-11T09:05:03.458Z,0.9
2023-03-11T09:07:02.889Z,0.9
2023-03-11T09:13:01.730Z,1.1
2023-03-11T09:15:00.997Z,1.2
2023-03-11T09:17:00.428Z,1.2
2023-03-11T09:19:02.647Z,1.3
